createdAt,value
2023-05-07T00:05:48.021Z,27.25
2023-05-07T00:11:49.818Z,26.88
2023-05-07T00:17:51.720Z,27.08
2023-05-07T00:23:54.762Z,26.42
2023-05-07T00:29:56.555Z,26.75
2023-05-07T00:35:58.327Z,25.67
2023-05-07T00:42:01.636Z,25.48
2023-05-07T00:48:04.538Z,24.38
2023-05-07T00:54:06.957Z,24.92
2023-05-07T01:00:11.022Z,22.10
2023-05-07T01:06:13.962Z,22.67
2023-05-07T01:12:17.111Z,21.40
2023-05-07T01:18:19.168Z,21.85
2023-05-07T01:24:21.405Z,21.10
2023-05-07T01:30:23.797Z,20.88
2023-05-07T01:36:28.243Z,21.40
2023-05-07T01:42:31.221Z,21.33
2023-05-07T01:48:33.774Z,25.42
2023-05-07T01:54:35.944Z,27.45
2023-05-07T02:00:38.618Z,26.83
2023-05-07T02:06:40.569Z,27.05
2023-05-07T02:12:44.503Z,26.83
2023-05-07T02:18:46.423Z,28.00
2023-05-07T02:24:48.384Z,27.15
2023-05-07T02:30:50.441Z,27.02
2023-05-07T02:36:52.757Z,24.95
2023-05-07T02:42:58.219Z,25.52
2023-05-07T02:49:00.137Z,24.98
2023-05-07T02:55:01.992Z,24.23
2023-05-07T03:01:03.868Z,23.63
2023-05-07T03:07:28.480Z,24.58
2023-05-07T03:13:30.261Z,23.40
2023-05-07T03:19:32.387Z,25.17
2023-05-07T03:25:34.600Z,25.08
2023-05-07T03:31:36.518Z,24.27
2023-05-07T03:37:39.435Z,24.88
2023-05-07T03:43:41.682Z,24.95
2023-05-07T03:49:46.715Z,24.42
2023-05-07T03:55:49.701Z,23.42
2023-05-07T04:01:52.047Z,21.63
2023-05-07T04:07:58.750Z,20.65
2023-05-07T04:14:06.696Z,19.48
2023-05-07T04:20:11.664Z,18.33
2023-05-07T04:26:14.537Z,17.63
2023-05-07T04:32:19.088Z,15.98
2023-05-07T04:38:21.465Z,15.68
2023-05-07T04:44:26.062Z,15.70
2023-05-07T04:50:28.035Z,15.85
2023-05-07T04:56:34.618Z,14.60
2023-05-07T05:02:37.365Z,15.35
2023-05-07T05:08:39.701Z,15.02
2023-05-07T05:14:41.657Z,14.98
2023-05-07T05:20:43.937Z,15.10
2023-05-07T05:26:47.130Z,15.88
2023-05-07T05:32:49.317Z,14.40
2023-05-07T05:38:51.235Z,15.00
2023-05-07T05:44:53.714Z,15.93
2023-05-07T05:50:55.826Z,16.05
2023-05-07T05:56:58.001Z,15.63
2023-05-07T06:03:00.868Z,14.98
2023-05-07T06:09:03.585Z,14.43
2023-05-07T06:15:12.404Z,13.57
2023-05-07T06:21:16.246Z,13.45
2023-05-07T06:27:18.271Z,12.77
2023-05-07T06:33:21.212Z,12.93
2023-05-07T06:39:23.074Z,12.50
2023-05-07T06:45:26.149Z,12.13
2023-05-07T06:51:29.852Z,11.95
2023-05-07T06:57:36.476Z,12.40
2023-05-07T07:03:38.645Z,11.45
2023-05-07T07:09:40.756Z,11.45
2023-05-07T07:15:44.795Z,12.10
2023-05-07T07:21:47.031Z,10.05
2023-05-07T07:27:58.181Z,9.95
2023-05-07T07:34:06.258Z,9.52
2023-05-07T07:40:09.853Z,9.90
2023-05-07T07:46:13.006Z,10.23
2023-05-07T07:52:15.598Z,10.50
2023-05-07T07:58:19.460Z,11.63
2023-05-07T08:04:23.058Z,10.85
2023-05-07T08:10:25.671Z,9.85
2023-05-07T08:16:34.526Z,9.35
2023-05-07T08:22:38.128Z,8.38
2023-05-07T08:28:41.222Z,7.65
2023-05-07T08:34:43.994Z,8.20
2023-05-07T08:40:46.197Z,7.95
2023-05-07T08:46:56.858Z,8.18
2023-05-07T08:53:01.081Z,8.63
2023-05-07T08:59:04.742Z,7.47
2023-05-07T09:05:07.546Z,8.05
2023-05-07T09:11:10.983Z,8.73
2023-05-07T09:17:12.888Z,8.90
2023-05-07T09:23:15.299Z,7.75
2023-05-07T09:29:19.288Z,8.07
2023-05-07T09:35:22.798Z,8.23
2023-05-07T09:47:48.264Z,10.27
2023-05-07T09:53:53.312Z,10.00
2023-05-07T09:59:59.045Z,10.77
2023-05-07T10:06:04.456Z,10.00
2023-05-07T10:12:08.119Z,10.35
2023-05-07T10:18:12.713Z,10.57
2023-05-07T10:24:26.032Z,10.27
2023-05-07T10:30:41.188Z,9.73
2023-05-07T10:36:44.679Z,9.65
2023-05-07T10:43:02.348Z,9.57
2023-05-07T10:49:08.712Z,9.95
2023-05-07T10:55:19.819Z,10.30
2023-05-07T11:01:59.265Z,9.38
2023-05-07T11:08:16.209Z,10.32
2023-05-07T11:14:45.631Z,10.63
2023-05-07T11:21:00.180Z,11.93
2023-05-07T11:27:13.980Z,10.88
2023-05-07T11:33:19.551Z,11.07
2023-05-07T11:39:32.542Z,11.73
2023-05-07T11:45:36.186Z,12.02
2023-05-07T11:51:38.030Z,11.82
2023-05-07T11:57:40.184Z,11.65
2023-05-07T12:03:43.866Z,11.35
2023-05-07T12:09:46.987Z,11.20
2023-05-07T12:15:56.019Z,11.20
2023-05-07T12:21:58.573Z,11.38
2023-05-07T12:28:02.265Z,11.23
2023-05-07T12:34:04.322Z,11.05
2023-05-07T12:40:11.197Z,10.90
2023-05-07T12:46:14.838Z,10.70
2023-05-07T12:52:16.663Z,10.18
2023-05-07T12:58:29.864Z,9.73
2023-05-07T13:04:31.664Z,8.77
2023-05-07T13:10:35.059Z,9.48
2023-05-07T13:16:36.928Z,9.00
2023-05-07T13:22:38.875Z,8.35
2023-05-07T13:28:41.747Z,8.48
2023-05-07T13:34:43.514Z,8.85
2023-05-07T13:40:45.340Z,9.48
2023-05-07T13:46:47.127Z,9.38
2023-05-07T13:52:52.092Z,8.63
2023-05-07T13:58:59.908Z,9.52
2023-05-07T14:05:02.226Z,9.73
2023-05-07T14:11:04.489Z,9.27
2023-05-07T14:17:06.723Z,9.27
2023-05-07T14:23:08.829Z,9.45
2023-05-07T14:29:10.854Z,9.55
2023-05-07T14:35:13.263Z,8.75
2023-05-07T14:41:17.114Z,8.25
2023-05-07T14:47:20.075Z,9.05
2023-05-07T14:53:22.679Z,8.35
2023-05-07T14:59:26.303Z,8.00
2023-05-07T15:05:29.014Z,7.68
2023-05-07T15:11:31.245Z,8.13
2023-05-07T15:17:36.149Z,7.38
2023-05-07T15:23:39.785Z,7.93
2023-05-07T15:29:41.598Z,8.52
2023-05-07T15:35:43.553Z,8.40
2023-05-07T15:41:45.475Z,9.48
2023-05-07T15:47:47.219Z,9.05
2023-05-07T15:53:49.574Z,10.02
2023-05-07T15:59:51.512Z,9.93
2023-05-07T16:05:53.889Z,9.90
2023-05-07T16:11:56.305Z,10.20
2023-05-07T16:17:59.588Z,10.45
2023-05-07T16:24:01.805Z,9.73
2023-05-07T16:30:03.839Z,9.70
2023-05-07T16:36:06.248Z,10.32
2023-05-07T16:42:08.051Z,9.25
2023-05-07T16:48:09.941Z,9.45
2023-05-07T16:54:11.763Z,9.13
2023-05-07T17:00:14.338Z,9.60
2023-05-07T17:06:16.190Z,10.02
2023-05-07T17:12:17.934Z,9.85
2023-05-07T17:18:19.688Z,9.77
2023-05-07T17:24:21.402Z,9.43
2023-05-07T17:30:23.247Z,9.90
2023-05-07T17:36:25.075Z,9.32
2023-05-07T17:42:26.903Z,8.88
2023-05-07T17:48:28.637Z,8.20
2023-05-07T17:54:30.650Z,8.85
2023-05-07T18:00:32.635Z,8.13
2023-05-07T18:06:34.428Z,8.10
2023-05-07T18:12:36.360Z,7.75
2023-05-07T18:18:38.261Z,8.68
2023-05-07T18:24:39.997Z,8.57
2023-05-07T18:30:41.829Z,9.15
2023-05-07T18:36:43.599Z,8.43
2023-05-07T18:42:45.390Z,8.05
2023-05-07T18:48:47.198Z,7.93
2023-05-07T18:54:49.004Z,7.57
2023-05-07T19:00:51.266Z,6.82
2023-05-07T19:06:53.076Z,7.25
2023-05-07T19:12:55.716Z,7.05
2023-05-07T19:18:57.705Z,6.95
2023-05-07T19:24:59.456Z,7.22
2023-05-07T19:31:01.354Z,6.90
2023-05-07T19:37:03.173Z,7.57
2023-05-07T19:43:04.927Z,6.78
2023-05-07T19:49:06.694Z,6.95
2023-05-07T19:55:08.883Z,6.38
2023-05-07T20:01:10.763Z,6.10
2023-05-07T20:07:12.565Z,6.10
2023-05-07T20:13:14.384Z,6.13
2023-05-07T20:19:16.242Z,6.35
2023-05-07T20:25:17.998Z,5.95
2023-05-07T20:31:20.629Z,6.25
2023-05-07T20:37:22.585Z,6.72
2023-05-07T20:43:24.358Z,6.38
2023-05-07T20:49:26.141Z,6.43
2023-05-07T20:55:27.895Z,6.60
2023-05-07T21:01:29.881Z,6.28
2023-05-07T21:07:31.717Z,6.78
2023-05-07T21:13:33.460Z,6.85
2023-05-07T21:19:35.600Z,6.55
2023-05-07T21:25:38.797Z,7.22
2023-05-07T21:31:40.743Z,6.65
2023-05-07T21:37:42.648Z,7.38
2023-05-07T21:43:44.391Z,7.13
2023-05-07T21:49:46.823Z,7.00
2023-05-07T21:55:48.614Z,7.35
2023-05-07T22:01:50.553Z,7.70
2023-05-07T22:07:52.353Z,7.70
2023-05-07T22:13:54.110Z,7.90
2023-05-07T22:19:55.925Z,8.60
2023-05-07T22:25:58.357Z,8.30
2023-05-07T22:32:00.281Z,7.95
2023-05-07T22:38:02.230Z,8.52
2023-05-07T22:44:04.097Z,9.20
2023-05-07T22:50:06.619Z,9.38
2023-05-07T22:56:09.556Z,9.82
2023-05-07T23:02:11.483Z,9.90
2023-05-07T23:08:13.291Z,9.27
2023-05-07T23:14:15.269Z,9.88
2023-05-07T23:20:17.192Z,10.93
2023-05-07T23:26:18.976Z,10.95
2023-05-07T23:32:20.947Z,11.63
2023-05-07T23:38:22.752Z,12.23
2023-05-07T23:44:24.526Z,11.60
2023-05-07T23:50:26.349Z,11.93
2023-05-07T23:56:28.262Z,12.20
